Time;durP1;ratioP1;P1;durP2;ratioP2;P2;SDS_P1;SDS_P2;PMS_P1;PMS_P2;Temp;Humidity;BMP_temperature;BMP_pressure;BME280_temperature;BME280_humidity;BME280_pressure;Samples;Min_cycle;Max_cycle;Signal;HPM_P1;HPM_P2
2022/03/11 00:00:42;;;;;;;;;24.50;23.75;;;;;13.73;40.62;100840.72;5060699;28;45356;-56
2022/03/11 00:03:08;;;;;;;;;25.75;25.75;;;;;13.72;41.10;100846.03;5043910;28;45660;-56
2022/03/11 00:05:33;;;;;;;;;31.75;26.50;;;;;13.71;40.64;100844.31;5061964;28;45508;-55
2022/03/11 00:07:59;;;;;;;;;26.00;23.00;;;;;13.69;40.66;100831.16;5060403;28;45311;-54
2022/03/11 00:10:24;;;;;;;;;27.25;26.25;;;;;13.67;40.83;100832.09;5062093;28;45491;-56
2022/03/11 00:12:49;;;;;;;;;24.25;22.50;;;;;13.64;40.98;100828.63;5061832;28;45456;-55
2022/03/11 00:15:15;;;;;;;;;26.00;24.50;;;;;13.61;41.06;100827.81;5061560;28;45562;-56
2022/03/11 00:17:41;;;;;;;;;28.25;24.50;;;;;13.62;41.26;100829.56;5061789;28;45361;-56
2022/03/11 00:20:07;;;;;;;;;25.75;23.00;;;;;13.60;40.93;100829.59;5060685;28;45187;-56
2022/03/11 00:22:35;;;;;;;;;24.25;23.75;;;;;13.57;41.18;100820.91;5061622;28;45194;-56
2022/03/11 00:25:00;;;;;;;;;24.00;23.75;;;;;13.53;41.53;100814.81;5061524;28;45246;-56
2022/03/11 00:27:26;;;;;;;;;22.75;21.25;;;;;13.51;41.17;100814.00;5061403;28;45239;-56
2022/03/11 00:29:51;;;;;;;;;19.00;17.25;;;;;13.47;41.26;100810.56;5094084;27;45261;-56
2022/03/11 00:32:16;;;;;;;;;26.75;23.75;;;;;13.48;41.40;100811.44;5060260;28;45396;-55
2022/03/11 00:34:42;;;;;;;;;20.50;20.25;;;;;13.47;41.32;100812.34;5060241;28;45951;-56
2022/03/11 00:37:07;;;;;;;;;24.00;24.00;;;;;13.46;41.16;100807.97;5061388;28;45327;-56
2022/03/11 00:39:33;;;;;;;;;27.00;26.00;;;;;13.43;41.33;100808.03;5061501;28;45325;-58
2022/03/11 00:41:58;;;;;;;;;30.00;25.75;;;;;13.42;41.41;100799.28;5061221;28;45339;-55
2022/03/11 00:44:24;;;;;;;;;24.00;23.25;;;;;13.42;41.23;100801.91;5061235;28;45679;-56
2022/03/11 00:46:49;;;;;;;;;22.50;20.50;;;;;13.40;41.31;100787.88;5061225;28;45339;-55
2022/03/11 00:49:15;;;;;;;;;23.75;23.50;;;;;13.39;41.75;100801.97;5067434;28;45325;-55
2022/03/11 00:51:40;;;;;;;;;27.75;22.50;;;;;13.38;41.34;100791.47;5061075;28;45529;-56
2022/03/11 00:54:06;;;;;;;;;24.50;22.75;;;;;13.35;41.77;100787.09;5061291;28;46262;-54
2022/03/11 00:56:32;;;;;;;;;30.00;24.50;;;;;13.32;41.53;100782.75;5076676;27;45296;-56
2022/03/11 00:58:57;;;;;;;;;26.00;21.50;;;;;13.27;41.71;100774.09;5061237;28;45370;-55
2022/03/11 01:01:23;;;;;;;;;24.00;22.50;;;;;13.29;41.79;100782.81;5060890;28;45501;-55
2022/03/11 01:03:49;;;;;;;;;28.75;27.25;;;;;13.28;41.65;100777.59;5059794;28;45439;-55
2022/03/11 01:06:15;;;;;;;;;24.50;24.50;;;;;13.22;41.65;100767.19;5059867;28;45186;-54
2022/03/11 01:08:40;;;;;;;;;26.75;24.75;;;;;13.23;41.60;100767.16;5060776;28;45312;-54
2022/03/11 01:11:08;;;;;;;;;25.25;22.75;;;;;13.22;42.02;100775.97;5059553;28;45577;-54
2022/03/11 01:13:34;;;;;;;;;26.75;24.25;;;;;13.19;42.10;100770.75;5059610;28;46983;-55
2022/03/11 01:16:00;;;;;;;;;23.75;23.25;;;;;13.14;41.70;100759.47;5060572;28;45385;-54
2022/03/11 01:18:26;;;;;;;;;25.75;23.25;;;;;13.16;41.58;100771.69;5061050;28;45311;-54
2022/03/11 01:20:52;;;;;;;;;26.25;23.50;;;;;13.15;41.94;100769.13;5059454;28;45411;-56
2022/03/11 01:23:17;;;;;;;;;25.25;23.25;;;;;13.12;42.14;100769.19;5060718;28;45203;-55
2022/03/11 01:25:43;;;;;;;;;24.75;24.25;;;;;13.10;42.11;100765.72;5060604;28;45223;-55
2022/03/11 01:28:09;;;;;;;;;29.25;23.75;;;;;13.09;42.22;100758.69;5060970;28;45232;-53
2022/03/11 01:30:34;;;;;;;;;22.00;21.00;;;;;13.07;42.33;100753.47;5059204;28;45267;-55
2022/03/11 01:32:59;;;;;;;;;24.25;23.00;;;;;13.06;42.04;100748.25;5060655;28;45344;-54
2022/03/11 01:35:25;;;;;;;;;22.25;20.25;;;;;13.04;42.21;100752.69;5059259;28;45433;-59
2022/03/11 01:37:50;;;;;;;;;24.25;23.25;;;;;12.98;42.05;100741.38;5059442;28;45315;-56
2022/03/11 01:40:16;;;;;;;;;27.50;23.25;;;;;12.99;42.49;100743.13;5058998;28;45265;-55
2022/03/11 01:42:42;;;;;;;;;25.75;23.50;;;;;12.96;42.48;100740.53;5060507;28;45309;-53
2022/03/11 01:45:08;;;;;;;;;29.75;25.00;;;;;12.96;42.34;100752.88;5060192;28;45367;-53
2022/03/11 01:47:33;;;;;;;;;28.25;27.00;;;;;12.95;42.46;100746.72;5043411;28;45337;-53
2022/03/11 01:49:59;;;;;;;;;27.75;25.00;;;;;12.93;42.35;100734.47;5065119;28;45362;-54
2022/03/11 01:52:25;;;;;;;;;26.25;24.00;;;;;12.92;42.31;100736.25;5060348;28;45507;-55
2022/03/11 01:54:51;;;;;;;;;25.00;24.00;;;;;12.91;42.63;100729.22;5060195;28;45294;-55
2022/03/11 01:57:17;;;;;;;;;31.50;25.50;;;;;12.91;42.30;100717.81;5060354;28;45275;-55
2022/03/11 01:59:43;;;;;;;;;27.50;23.75;;;;;12.90;42.44;100719.56;5059896;28;45665;-55
2022/03/11 02:02:09;;;;;;;;;24.50;23.50;;;;;12.85;42.84;100729.38;5060184;28;45924;-55
2022/03/11 02:04:35;;;;;;;;;26.25;26.00;;;;;12.83;42.68;100729.41;5060078;28;45252;-55
2022/03/11 02:07:00;;;;;;;;;25.50;23.00;;;;;12.84;42.66;100728.53;5059070;28;45336;-55
2022/03/11 02:09:27;;;;;;;;;33.00;27.50;;;;;12.83;42.69;100725.94;5058977;28;45466;-58
2022/03/11 02:11:52;;;;;;;;;26.25;22.50;;;;;12.81;42.63;100728.56;5058969;28;47158;-55
2022/03/11 02:14:17;;;;;;;;;30.00;27.50;;;;;12.80;43.04;100720.72;5059706;28;45302;-56
2022/03/11 02:16:43;;;;;;;;;27.75;26.75;;;;;12.79;42.61;100732.16;5060331;28;45244;-52
2022/03/11 02:19:08;;;;;;;;;30.25;27.50;;;;;12.78;43.00;100723.38;5059799;28;45327;-56
2022/03/11 02:21:53;;;;;;;;;29.00;25.00;;;;;12.75;43.12;100718.16;5058753;28;48123;-55
2022/03/11 02:24:19;;;;;;;;;23.00;21.75;;;;;12.74;42.92;100726.13;5058443;28;45311;-54
2022/03/11 02:26:45;;;;;;;;;26.50;24.50;;;;;12.72;43.15;100723.53;5060061;28;45330;-55
2022/03/11 02:29:11;;;;;;;;;25.50;25.50;;;;;12.71;42.98;100711.25;5059335;28;45288;-55
2022/03/11 02:31:37;;;;;;;;;30.00;29.25;;;;;12.68;42.97;100714.81;5059801;28;45405;-55
2022/03/11 02:34:04;;;;;;;;;27.00;25.00;;;;;12.66;43.13;100719.25;5059586;28;45425;-55
2022/03/11 02:36:29;;;;;;;;;28.25;26.25;;;;;12.68;43.08;100716.59;5058676;28;45281;-54
2022/03/11 02:38:55;;;;;;;;;32.00;27.50;;;;;12.67;43.42;100715.72;5058197;28;45329;-56
2022/03/11 02:41:20;;;;;;;;;28.25;23.50;;;;;12.66;42.98;100716.63;5059494;28;45308;-55
2022/03/11 02:43:46;;;;;;;;;25.50;23.50;;;;;12.65;43.35;100709.63;5059366;28;45411;-56
2022/03/11 02:46:13;;;;;;;;;28.00;24.00;;;;;12.64;43.51;100707.00;5059994;28;45245;-57
2022/03/11 02:48:39;;;;;;;;;30.50;27.75;;;;;12.63;43.32;100694.75;5064600;28;45453;-58
2022/03/11 02:51:04;;;;;;;;;25.75;24.50;;;;;12.64;43.17;100694.72;5058253;28;47152;-55
2022/03/11 02:53:30;;;;;;;;;29.00;25.00;;;;;12.64;43.50;100697.34;5059404;28;45350;-54
2022/03/11 02:55:55;;;;;;;;;28.50;24.25;;;;;12.61;43.25;100694.75;5058320;28;45331;-55
2022/03/11 02:58:21;;;;;;;;;28.25;26.50;;;;;12.62;43.23;100693.88;5059394;28;45454;-54
2022/03/11 03:00:47;;;;;;;;;23.75;22.50;;;;;12.60;43.50;100697.44;5057857;28;45280;-55
2022/03/11 03:03:13;;;;;;;;;28.25;25.00;;;;;12.59;43.67;100693.97;5041166;28;45259;-55
2022/03/11 03:05:38;;;;;;;;;23.00;23.00;;;;;12.57;43.72;100690.47;5058229;28;45181;-54
2022/03/11 03:08:04;;;;;;;;;25.75;22.75;;;;;12.57;43.64;100682.56;5057840;28;45348;-56
2022/03/11 03:10:30;;;;;;;;;27.00;23.50;;;;;12.56;43.67;100680.84;5059224;28;45236;-56
2022/03/11 03:12:55;;;;;;;;;29.25;26.25;;;;;12.55;43.30;100670.31;5058044;28;45691;-54
2022/03/11 03:15:20;;;;;;;;;26.75;25.75;;;;;12.55;43.52;100668.53;5059304;28;45817;-55
2022/03/11 03:17:46;;;;;;;;;23.00;23.00;;;;;12.52;43.65;100658.94;5059407;28;45216;-56
2022/03/11 03:20:11;;;;;;;;;26.50;26.25;;;;;12.53;43.55;100665.09;5057855;28;47471;-56
2022/03/11 03:22:37;;;;;;;;;24.00;21.50;;;;;12.50;43.75;100646.72;5059398;28;45365;-55
2022/03/11 03:25:04;;;;;;;;;26.75;22.00;;;;;12.49;43.70;100648.50;5061299;28;45420;-56
2022/03/11 03:27:30;;;;;;;;;25.75;22.50;;;;;12.45;43.54;100644.19;5062373;28;45323;-56
2022/03/11 03:29:55;;;;;;;;;25.50;24.50;;;;;12.44;43.25;100644.22;5060870;28;45902;-56
2022/03/11 03:32:21;;;;;;;;;22.75;21.25;;;;;12.42;43.64;100641.63;5062482;28;45319;-56
2022/03/11 03:34:46;;;;;;;;;27.00;24.50;;;;;12.40;43.56;100642.56;5062657;28;45385;-56
2022/03/11 03:37:12;;;;;;;;;25.25;22.00;;;;;12.40;43.65;100653.09;5062484;28;45285;-56
2022/03/11 03:39:39;;;;;;;;;27.50;23.00;;;;;12.37;43.69;100642.66;5062210;28;46419;-56
2022/03/11 03:42:05;;;;;;;;;20.00;20.00;;;;;12.33;43.81;100642.69;5061093;28;45302;-55
2022/03/11 03:44:31;;;;;;;;;23.00;20.50;;;;;12.32;43.70;100646.22;5060912;28;45402;-56
2022/03/11 03:46:56;;;;;;;;;20.50;19.25;;;;;12.31;43.70;100638.38;5060909;28;45251;-56
2022/03/11 03:49:22;;;;;;;;;24.50;22.25;;;;;12.29;43.77;100642.78;5067988;28;45347;-54
2022/03/11 03:51:48;;;;;;;;;20.50;16.75;;;;;12.27;43.73;100645.47;5062140;28;45314;-54
2022/03/11 03:54:13;;;;;;;;;23.00;18.75;;;;;12.24;43.81;100642.03;5062451;28;45257;-55
2022/03/11 03:56:42;;;;;;;;;23.25;21.75;;;;;12.20;43.81;100638.63;5062090;28;45481;-56
2022/03/11 03:59:09;;;;;;;;;28.50;22.75;;;;;12.17;44.09;100628.16;5061918;28;45997;-56
2022/03/11 04:01:36;;;;;;;;;27.50;20.50;;;;;12.15;44.03;100630.81;5061870;28;45212;-56
2022/03/11 04:04:03;;;;;;;;;20.75;18.75;;;;;12.11;44.07;100628.28;5062165;28;45477;-55
2022/03/11 04:06:29;;;;;;;;;19.75;18.25;;;;;12.09;43.99;100630.97;5061917;28;45268;-56
2022/03/11 04:08:56;;;;;;;;;25.00;24.00;;;;;12.05;44.01;100623.16;5061563;28;45319;-56
2022/03/11 04:11:25;;;;;;;;;17.50;15.50;;;;;12.03;44.07;100624.03;5061672;28;45267;-55
2022/03/11 04:13:51;;;;;;;;;22.75;19.00;;;;;12.01;44.27;100615.31;5061791;28;45220;-56
2022/03/11 04:16:18;;;;;;;;;20.50;18.75;;;;;12.02;44.08;100622.34;5060333;28;45333;-56
2022/03/11 04:18:43;;;;;;;;;22.50;20.50;;;;;11.99;44.08;100611.84;5061708;28;45533;-56
2022/03/11 04:21:09;;;;;;;;;21.00;16.75;;;;;12.00;44.08;100615.38;5061654;28;45697;-56
2022/03/11 04:23:34;;;;;;;;;26.75;21.50;;;;;11.98;43.93;100612.75;5061875;28;45394;-56
2022/03/11 04:26:00;;;;;;;;;21.00;17.75;;;;;11.98;43.85;100609.25;5061514;28;45310;-55
2022/03/11 04:28:26;;;;;;;;;23.75;18.50;;;;;11.97;44.11;100605.75;5061699;28;45401;-56
2022/03/11 04:30:51;;;;;;;;;20.00;16.75;;;;;11.94;44.31;100604.94;5061438;28;45233;-55
2022/03/11 04:33:16;;;;;;;;;16.25;16.25;;;;;11.93;44.27;100606.69;5061300;28;45323;-56
2022/03/11 04:35:42;;;;;;;;;18.75;18.75;;;;;11.91;44.08;100612.88;5061450;28;45446;-56
2022/03/11 04:38:09;;;;;;;;;15.00;13.50;;;;;11.86;44.39;100611.22;5061654;28;45237;-55
2022/03/11 04:40:34;;;;;;;;;20.00;20.00;;;;;11.86;44.24;100610.34;5060061;28;45373;-56
2022/03/11 04:43:01;;;;;;;;;21.00;19.25;;;;;11.83;44.45;100611.28;5060290;28;45279;-55
2022/03/11 04:45:27;;;;;;;;;18.50;16.00;;;;;11.82;44.37;100620.09;5059885;28;45468;-55
2022/03/11 04:47:52;;;;;;;;;18.50;16.00;;;;;11.80;44.38;100613.13;5065031;28;45374;-55
2022/03/11 04:50:18;;;;;;;;;19.50;18.75;;;;;11.75;44.40;100614.97;5062677;28;45394;-55
2022/03/11 04:52:43;;;;;;;;;14.75;13.25;;;;;11.73;44.45;100629.94;5060217;28;45347;-55
2022/03/11 04:55:09;;;;;;;;;15.50;15.25;;;;;11.68;44.68;100625.66;5061057;28;45248;-56
2022/03/11 04:57:34;;;;;;;;;16.50;15.00;;;;;11.67;44.70;100609.88;5059887;28;45329;-55
2022/03/11 05:00:00;;;;;;;;;18.75;15.00;;;;;11.62;44.53;100601.22;5059465;28;45438;-54
2022/03/11 05:02:27;;;;;;;;;15.75;14.25;;;;;11.63;44.76;100611.69;5061494;28;45333;-53
2022/03/11 05:04:53;;;;;;;;;15.50;11.50;;;;;11.61;44.59;100600.34;5059614;28;46307;-54
2022/03/11 05:07:19;;;;;;;;;24.75;19.50;;;;;11.62;44.58;100598.56;5059521;28;46086;-52
2022/03/11 05:09:45;;;;;;;;;21.00;16.00;;;;;11.59;44.76;100590.75;5060601;28;45252;-52
2022/03/11 05:12:11;;;;;;;;;18.25;15.75;;;;;11.57;44.71;100593.41;5061166;28;45256;-50
2022/03/11 05:14:37;;;;;;;;;17.00;14.50;;;;;11.57;44.75;100597.81;5060654;28;45441;-50
2022/03/11 05:17:03;;;;;;;;;20.00;16.25;;;;;11.54;44.66;100601.38;5060795;28;46164;-53
2022/03/11 05:19:28;;;;;;;;;12.00;11.50;;;;;11.50;44.79;100590.03;5059251;28;45311;-54
2022/03/11 05:21:54;;;;;;;;;15.00;11.00;;;;;11.50;44.81;100589.19;5060925;28;45473;-51
2022/03/11 05:24:19;;;;;;;;;12.00;11.50;;;;;11.48;44.77;100589.22;5060585;28;45402;-51
2022/03/11 05:26:44;;;;;;;;;16.25;14.00;;;;;11.49;45.04;100569.03;5060767;28;46248;-50
2022/03/11 05:29:10;;;;;;;;;14.25;14.25;;;;;11.46;44.94;100577.84;5060306;28;45454;-54
2022/03/11 05:31:36;;;;;;;;;15.75;14.50;;;;;11.45;45.00;100588.41;5059480;28;45465;-51
2022/03/11 05:34:01;;;;;;;;;14.50;13.75;;;;;11.43;45.19;100590.19;5060633;28;45629;-52
2022/03/11 05:36:26;;;;;;;;;15.75;15.25;;;;;11.42;45.07;100586.72;5059307;28;46849;-53
2022/03/11 05:38:52;;;;;;;;;13.25;13.25;;;;;11.40;45.12;100582.38;5059277;28;45868;-53
2022/03/11 05:41:18;;;;;;;;;18.00;15.00;;;;;11.37;45.28;100578.91;5060678;28;45447;-52
2022/03/11 05:43:43;;;;;;;;;16.75;15.50;;;;;11.37;45.34;100575.38;5060073;28;45434;-50
2022/03/11 05:46:09;;;;;;;;;19.25;16.50;;;;;11.37;45.24;100570.13;5059488;28;45965;-49
2022/03/11 05:48:35;;;;;;;;;17.00;14.50;;;;;11.33;45.10;100564.09;5065624;28;45284;-51
2022/03/11 05:51:00;;;;;;;;;18.50;14.00;;;;;11.35;45.15;100562.25;5060561;28;45511;-49
2022/03/11 05:53:26;;;;;;;;;13.25;10.75;;;;;11.36;45.20;100563.16;5060519;28;45201;-51
2022/03/11 05:55:51;;;;;;;;;15.50;13.25;;;;;11.33;45.01;100561.44;5060217;28;45972;-49
2022/03/11 05:58:17;;;;;;;;;15.50;13.25;;;;;11.33;45.44;100563.19;5060139;28;45470;-49
2022/03/11 06:00:42;;;;;;;;;14.75;13.25;;;;;11.31;45.42;100559.75;5058920;28;45360;-49
2022/03/11 06:03:07;;;;;;;;;13.00;13.00;;;;;11.33;45.38;100571.97;5060037;28;45338;-52
2022/03/11 06:05:33;;;;;;;;;17.25;12.50;;;;;11.29;45.48;100559.75;5060126;28;46246;-49
2022/03/11 06:07:59;;;;;;;;;14.00;12.75;;;;;11.30;45.42;100565.91;5058638;28;45375;-51
2022/03/11 06:10:25;;;;;;;;;11.75;11.25;;;;;11.30;45.27;100565.91;5060223;28;45327;-52
2022/03/11 06:12:50;;;;;;;;;12.50;11.50;;;;;11.29;45.40;100562.38;5059934;28;45308;-51
2022/03/11 06:15:16;;;;;;;;;11.25;11.25;;;;;11.29;45.55;100569.44;5059842;28;45555;-48
2022/03/11 06:17:42;;;;;;;;;16.25;13.25;;;;;11.30;45.65;100572.03;5059993;28;45305;-51
2022/03/11 06:20:09;;;;;;;;;16.00;12.75;;;;;11.30;45.43;100561.50;5060141;28;45303;-51
2022/03/11 06:22:36;;;;;;;;;14.25;13.25;;;;;11.31;45.93;100560.59;5059772;28;45433;-48
2022/03/11 06:25:03;;;;;;;;;15.00;13.75;;;;;11.31;45.66;100547.44;5059821;28;47132;-50
2022/03/11 06:27:28;;;;;;;;;11.75;10.75;;;;;11.31;45.73;100555.34;5059620;28;45320;-49
2022/03/11 06:29:54;;;;;;;;;13.75;12.75;;;;;11.32;45.55;100561.47;5059549;28;45329;-51
2022/03/11 06:32:20;;;;;;;;;18.25;18.00;;;;;11.32;45.68;100557.09;5059887;28;45406;-54
2022/03/11 06:34:48;;;;;;;;;10.75;8.25;;;;;11.33;45.69;100560.56;5059717;28;45417;-51
2022/03/11 06:37:13;;;;;;;;;21.25;17.75;;;;;11.35;45.82;100551.75;5059441;28;45249;-49
2022/03/11 06:39:38;;;;;;;;;14.50;14.00;;;;;11.35;45.69;100545.63;5059670;28;45296;-50
2022/03/11 06:42:04;;;;;;;;;14.00;14.00;;;;;11.37;45.68;100549.06;5059408;28;45460;-51
2022/03/11 06:44:29;;;;;;;;;14.00;11.25;;;;;11.38;45.68;100546.44;5056951;28;45462;-52
2022/03/11 06:46:55;;;;;;;;;10.50;9.50;;;;;11.39;45.65;100547.28;5056225;28;45431;-56
2022/03/11 06:49:20;;;;;;;;;9.50;7.75;;;;;11.41;45.71;100557.78;5065010;28;45629;-54
2022/03/11 06:51:45;;;;;;;;;8.75;8.75;;;;;11.42;45.84;100546.34;5059291;28;45397;-51
2022/03/11 06:54:11;;;;;;;;;8.75;8.75;;;;;11.43;45.88;100551.56;5059239;28;46279;-48
2022/03/11 06:56:36;;;;;;;;;12.00;11.00;;;;;11.45;45.90;100538.41;5061152;28;45337;-50
2022/03/11 06:59:04;;;;;;;;;11.75;10.50;;;;;11.45;45.81;100535.78;5063025;28;45328;-53
2022/03/11 07:01:29;;;;;;;;;9.00;9.00;;;;;11.48;45.94;100531.31;5062862;28;45440;-53
2022/03/11 07:03:55;;;;;;;;;9.50;9.50;;;;;11.50;46.01;100528.66;5061588;28;48241;-57
2022/03/11 07:06:20;;;;;;;;;9.25;9.00;;;;;11.51;46.12;100525.13;5062775;28;45337;-49
2022/03/11 07:08:46;;;;;;;;;13.25;10.00;;;;;11.53;46.20;100523.31;5061512;28;45477;-51
2022/03/11 07:11:11;;;;;;;;;11.50;10.00;;;;;11.55;45.99;100521.53;5062810;28;45294;-50
2022/03/11 07:13:36;;;;;;;;;13.00;12.00;;;;;11.55;46.16;100529.41;5062544;28;46044;-53
2022/03/11 07:16:02;;;;;;;;;10.25;8.75;;;;;11.58;46.15;100531.13;5049116;28;45252;-52
2022/03/11 07:18:27;;;;;;;;;11.00;10.75;;;;;11.61;45.77;100541.56;5056466;28;45413;-59
2022/03/11 07:20:53;;;;;;;;;12.00;8.75;;;;;11.63;46.29;100532.72;5062032;28;45462;-51
2022/03/11 07:23:18;;;;;;;;;10.75;10.75;;;;;11.68;46.09;100535.28;5059338;28;46527;-52
2022/03/11 07:25:44;;;;;;;;;9.75;9.00;;;;;11.69;46.24;100529.13;5076089;28;45539;-52
2022/03/11 07:28:11;;;;;;;;;11.00;9.50;;;;;11.73;46.12;100530.78;5062479;28;45236;-50
2022/03/11 07:30:37;;;;;;;;;8.00;8.00;;;;;11.78;46.09;100525.41;5060460;28;45604;-51
2022/03/11 07:33:02;;;;;;;;;9.25;8.00;;;;;11.78;46.03;100523.63;5061947;28;46177;-50
2022/03/11 07:35:28;;;;;;;;;10.50;9.75;;;;;11.81;46.24;100520.94;5062351;28;46503;-48
2022/03/11 07:37:54;;;;;;;;;11.25;9.00;;;;;11.87;46.29;100522.56;5061175;28;45328;-52
2022/03/11 07:40:19;;;;;;;;;7.25;7.25;;;;;11.89;46.27;100518.13;5062063;28;45532;-51
2022/03/11 07:42:44;;;;;;;;;10.00;8.75;;;;;11.92;46.24;100514.56;5062274;28;46130;-50
2022/03/11 07:45:12;;;;;;;;;12.50;8.75;;;;;11.95;46.26;100519.75;5061686;28;45541;-49
2022/03/11 07:47:38;;;;;;;;;8.00;8.00;;;;;11.97;46.23;100510.94;5059259;28;45557;-49
2022/03/11 07:50:05;;;;;;;;;8.50;8.00;;;;;12.00;46.16;100510.88;5048953;28;45318;-52
2022/03/11 07:52:30;;;;;;;;;9.75;9.00;;;;;12.01;46.30;100506.47;5057743;28;47998;-53
2022/03/11 07:54:56;;;;;;;;;9.25;8.50;;;;;12.05;46.21;100508.16;5060691;28;45226;-53
2022/03/11 07:57:21;;;;;;;;;9.50;8.00;;;;;12.07;46.23;100503.69;5062142;28;45221;-53
2022/03/11 07:59:47;;;;;;;;;13.50;12.50;;;;;12.09;46.31;100499.25;5061701;28;45630;-52
2022/03/11 08:02:14;;;;;;;;;19.00;16.00;;;;;12.06;46.26;100490.56;5060595;28;48033;-54
2022/03/11 08:04:39;;;;;;;;;9.00;8.00;;;;;12.09;46.43;100487.84;5059817;28;45418;-51
2022/03/11 08:07:09;;;;;;;;;7.25;7.25;;;;;12.13;46.18;100492.16;5061291;28;45539;-54
2022/03/11 08:09:35;;;;;;;;;9.50;8.50;;;;;12.12;46.25;100483.38;5060141;28;45450;-51
2022/03/11 08:12:01;;;;;;;;;8.50;7.00;;;;;12.16;46.38;100482.41;5061639;28;45239;-54
2022/03/11 08:14:26;;;;;;;;;7.75;7.00;;;;;12.18;46.38;100482.38;5061601;28;45352;-54
2022/03/11 08:16:51;;;;;;;;;7.50;7.25;;;;;12.14;46.40;100494.75;5062018;28;45209;-51
2022/03/11 08:19:17;;;;;;;;;4.25;2.75;;;;;12.19;46.46;100484.09;5061900;28;45533;-54
2022/03/11 08:21:42;;;;;;;;;6.00;5.00;;;;;12.18;46.53;100483.22;5061444;28;46136;-52
2022/03/11 08:24:07;;;;;;;;;5.00;5.00;;;;;12.20;46.48;100477.94;5060226;28;45312;-52
2022/03/11 08:26:33;;;;;;;;;7.75;7.50;;;;;12.24;46.46;100479.56;5061995;28;45324;-54
2022/03/11 08:28:58;;;;;;;;;8.00;6.25;;;;;12.27;46.50;100470.72;5060066;28;45327;-54
2022/03/11 08:31:24;;;;;;;;;7.50;5.75;;;;;12.29;46.63;100475.06;5061643;28;45248;-54
2022/03/11 08:33:49;;;;;;;;;6.25;6.25;;;;;12.30;46.58;100458.34;5060379;28;45693;-53
2022/03/11 08:36:14;;;;;;;;;7.00;5.50;;;;;12.35;46.73;100472.25;5061881;28;45561;-51
2022/03/11 08:38:42;;;;;;;;;8.00;7.00;;;;;12.39;46.43;100477.44;5061675;28;45363;-53
2022/03/11 08:41:08;;;;;;;;;7.25;6.00;;;;;12.39;46.69;100465.16;5061306;28;46593;-55
2022/03/11 08:43:38;;;;;;;;;5.50;4.00;;;;;12.44;46.32;100454.47;5061213;28;45304;-55
2022/03/11 08:46:04;;;;;;;;;7.75;7.75;;;;;12.47;46.49;100452.63;5061558;28;45315;-54
2022/03/11 08:48:29;;;;;;;;;6.00;5.00;;;;;12.51;46.72;100437.59;5061288;28;45327;-54
2022/03/11 08:50:55;;;;;;;;;3.00;3.00;;;;;12.53;46.80;100456.88;5059891;28;46959;-52
2022/03/11 08:53:20;;;;;;;;;6.25;6.25;;;;;12.58;46.89;100449.72;5061282;28;45340;-53
2022/03/11 08:55:46;;;;;;;;;6.25;5.50;;;;;12.62;46.79;100448.72;5061524;28;45515;-53
2022/03/11 08:58:11;;;;;;;;;6.00;6.00;;;;;12.66;46.95;100444.22;5061349;28;45263;-55
2022/03/11 09:00:37;;;;;;;;;4.25;4.25;;;;;12.72;46.89;100448.47;5059880;28;45956;-54
2022/03/11 09:03:02;;;;;;;;;4.75;4.75;;;;;12.77;46.71;100450.06;5061109;28;45291;-55
2022/03/11 09:05:28;;;;;;;;;6.00;6.00;;;;;12.86;46.67;100456.84;5061553;28;45368;-52
2022/03/11 09:07:53;;;;;;;;;4.50;4.50;;;;;12.91;46.62;100449.66;5061104;28;45461;-55
2022/03/11 09:10:19;;;;;;;;;5.00;5.00;;;;;12.97;47.05;100446.84;5060981;28;45328;-54
2022/03/11 09:12:46;;;;;;;;;6.00;6.00;;;;;13.06;46.79;100447.50;5060897;28;45248;-54
2022/03/11 09:15:12;;;;;;;;;4.25;4.25;;;;;13.12;46.96;100449.97;5059693;28;45256;-55
2022/03/11 09:17:38;;;;;;;;;4.75;4.75;;;;;13.17;46.84;100440.16;5065866;28;45427;-55
2022/03/11 09:20:06;;;;;;;;;5.00;5.00;;;;;13.25;46.84;100432.00;5060503;28;46041;-54
2022/03/11 09:22:32;;;;;;;;;6.75;6.75;;;;;13.31;46.61;100432.66;5060783;28;45363;-52
2022/03/11 09:24:58;;;;;;;;;4.00;4.00;;;;;13.35;46.91;100432.59;5060864;28;45166;-55
2022/03/11 09:27:23;;;;;;;;;5.00;4.00;;;;;13.43;46.79;100435.88;5059447;28;45254;-54
2022/03/11 09:29:49;;;;;;;;;5.00;5.00;;;;;13.46;46.86;100427.88;5059007;28;48170;-54
2022/03/11 09:32:15;;;;;;;;;3.25;3.25;;;;;13.53;46.67;100421.47;5060770;28;45182;-55
2022/03/11 09:34:40;;;;;;;;;4.25;4.25;;;;;13.59;46.51;100425.69;5059535;28;45513;-54
2022/03/11 09:37:07;;;;;;;;;3.75;3.00;;;;;13.64;46.58;100424.63;5060712;28;45417;-54
2022/03/11 09:39:33;;;;;;;;;6.25;5.00;;;;;13.73;46.65;100417.34;5060337;28;45427;-54
2022/03/11 09:41:58;;;;;;;;;6.00;4.00;;;;;13.79;46.25;100419.78;5060532;28;45375;-54
2022/03/11 09:44:24;;;;;;;;;5.75;4.00;;;;;13.86;46.61;100423.06;5060440;28;45454;-52
2022/03/11 09:46:50;;;;;;;;;4.00;4.00;;;;;13.91;46.24;100427.31;5060537;28;45489;-52
2022/03/11 09:49:17;;;;;;;;;4.00;4.00;;;;;14.00;46.22;100418.22;5060248;28;45365;-54
2022/03/11 09:51:45;;;;;;;;;5.00;3.00;;;;;14.05;46.59;100424.19;5060388;28;45230;-53
2022/03/11 09:54:11;;;;;;;;;4.00;4.00;;;;;14.08;46.18;100424.09;5060325;28;45376;-53
2022/03/11 09:56:41;;;;;;;;;4.50;4.50;;;;;14.15;46.12;100419.47;5060588;28;45322;-54
2022/03/11 09:59:08;;;;;;;;;6.00;4.25;;;;;14.20;46.46;100411.38;5059901;28;46065;-54
2022/03/11 10:01:33;;;;;;;;;7.25;4.25;;;;;14.26;46.21;100413.81;5060206;28;45430;-53
2022/03/11 10:03:59;;;;;;;;;3.50;3.50;;;;;14.30;45.92;100423.34;5060132;28;45256;-52
2022/03/11 10:06:42;;;;;;;;;5.25;4.75;;;;;14.37;46.23;100424.00;5059044;28;45868;-54
2022/03/11 10:09:19;;;;;;;;;4.50;4.25;;;;;14.40;46.39;100421.25;5059715;28;46684;-52
2022/03/11 10:11:46;;;;;;;;;4.00;4.00;;;;;14.44;45.95;100394.66;5060265;28;45331;-53
2022/03/11 10:14:12;;;;;;;;;4.00;4.00;;;;;14.49;46.11;100378.63;5058722;28;45249;-52
2022/03/11 10:16:38;;;;;;;;;4.75;4.75;;;;;14.50;46.00;100377.69;5064895;28;45414;-53
2022/03/11 10:19:06;;;;;;;;;3.50;3.50;;;;;14.54;46.44;100359.94;5092618;27;45364;-54
2022/03/11 10:21:41;;;;;;;;;5.25;5.00;;;;;14.55;46.00;100354.63;5059947;28;45283;-54
2022/03/11 10:24:08;;;;;;;;;4.00;4.00;;;;;14.59;46.50;100358.00;5059986;28;45347;-54
2022/03/11 10:26:34;;;;;;;;;4.50;4.50;;;;;14.62;46.12;100344.66;5058580;28;45524;-52
2022/03/11 10:29:01;;;;;;;;;6.00;5.25;;;;;14.67;46.38;100347.19;5059392;28;46996;-51
2022/03/11 10:31:39;;;;;;;;;4.25;4.25;;;;;14.72;46.08;100340.78;5063352;28;45254;-54
2022/03/11 10:34:15;;;;;;;;;5.75;4.00;;;;;14.79;46.44;100359.91;5066543;28;45276;-53
2022/03/11 10:36:55;;;;;;;;;4.25;3.00;;;;;14.86;46.00;100377.28;5066672;28;45519;-54
2022/03/11 10:39:29;;;;;;;;;4.00;3.00;;;;;14.93;46.00;100369.97;5066244;28;46149;-54
2022/03/11 10:42:12;;;;;;;;;4.00;4.00;;;;;14.96;46.03;100380.47;5066325;28;45244;-51
2022/03/11 10:44:39;;;;;;;;;4.00;3.50;;;;;15.04;46.35;100388.97;5066499;28;45418;-54
2022/03/11 10:47:28;;;;;;;;;3.75;2.75;;;;;15.11;46.02;100386.94;5066512;28;45177;-54
2022/03/11 10:49:57;;;;;;;;;3.25;3.25;;;;;15.15;46.34;100393.84;5066165;28;46848;-55
2022/03/11 10:52:43;;;;;;;;;3.25;3.25;;;;;15.20;45.81;100393.66;5066426;28;45267;-52
2022/03/11 10:55:18;;;;;;;;;4.25;4.25;;;;;15.22;45.88;100384.75;5066228;28;45432;-54
2022/03/11 10:57:45;;;;;;;;;4.00;2.75;;;;;15.25;46.28;100381.97;5065157;28;45427;-54
2022/03/11 11:00:17;;;;;;;;;2.00;2.00;;;;;15.27;46.19;100384.56;5065852;28;46017;-52
2022/03/11 11:02:44;;;;;;;;;3.75;3.75;;;;;15.33;46.07;100391.41;5066507;28;45458;-54
2022/03/11 11:05:12;;;;;;;;;2.50;2.50;;;;;15.36;46.12;100393.94;5066309;28;45454;-53
2022/03/11 11:07:39;;;;;;;;;3.25;2.50;;;;;15.39;45.56;100386.72;5066070;28;45347;-51
2022/03/11 11:10:05;;;;;;;;;1.50;1.50;;;;;15.44;45.97;100379.47;5065641;28;45370;-54